sensor_id;sensor_type;location;lat;lon;timestamp;P1;durP1;ratioP1;P2;durP2;ratioP2
1436;SDS011;712;51.026;13.792;2023-03-13T00:00:28;15.30;;;2.13;;
1436;SDS011;712;51.026;13.792;2023-03-13T00:02:53;10.63;;;2.20;;
1436;SDS011;712;51.026;13.792;2023-03-13T00:05:18;17.03;;;2.70;;
1436;SDS011;712;51.026;13.792;2023-03-13T00:07:43;9.95;;;2.13;;
1436;SDS011;712;51.026;13.792;2023-03-13T00:10:08;10.88;;;2.15;;
1436;SDS011;712;51.026;13.792;2023-03-13T00:12:33;10.23;;;2.05;;
1436;SDS011;712;51.026;13.792;2023-03-13T00:14:59;15.25;;;2.35;;
1436;SDS011;712;51.026;13.792;2023-03-13T00:17:24;12.85;;;2.25;;
1436;SDS011;712;51.026;13.792;2023-03-13T00:19:49;9.38;;;2.38;;
1436;SDS011;712;51.026;13.792;2023-03-13T00:22:14;10.18;;;2.25;;
1436;SDS011;712;51.026;13.792;2023-03-13T00:24:40;10.38;;;1.88;;
1436;SDS011;712;51.026;13.792;2023-03-13T00:27:05;10.80;;;2.05;;
1436;SDS011;712;51.026;13.792;2023-03-13T00:29:31;9.80;;;1.90;;
1436;SDS011;712;51.026;13.792;2023-03-13T00:31:56;13.52;;;2.47;;
1436;SDS011;712;51.026;13.792;2023-03-13T00:34:22;10.77;;;2.27;;
1436;SDS011;712;51.026;13.792;2023-03-13T00:36:47;10.68;;;2.22;;
1436;SDS011;712;51.026;13.792;2023-03-13T00:39:13;8.85;;;1.85;;
1436;SDS011;712;51.026;13.792;2023-03-13T00:41:38;10.30;;;2.10;;
1436;SDS011;712;51.026;13.792;2023-03-13T00:44:03;10.60;;;2.20;;
1436;SDS011;712;51.026;13.792;2023-03-13T00:46:28;12.37;;;2.27;;
1436;SDS011;712;51.026;13.792;2023-03-13T00:48:54;9.68;;;2.22;;
1436;SDS011;712;51.026;13.792;2023-03-13T00:51:19;11.63;;;2.10;;
1436;SDS011;712;51.026;13.792;2023-03-13T00:53:45;11.13;;;2.45;;
1436;SDS011;712;51.026;13.792;2023-03-13T00:56:11;13.77;;;2.28;;
1436;SDS011;712;51.026;13.792;2023-03-13T00:58:37;13.52;;;2.30;;
1436;SDS011;712;51.026;13.792;2023-03-13T01:03:31;12.85;;;2.58;;
1436;SDS011;712;51.026;13.792;2023-03-13T01:05:57;13.70;;;2.13;;
1436;SDS011;712;51.026;13.792;2023-03-13T01:08:22;11.25;;;2.00;;
1436;SDS011;712;51.026;13.792;2023-03-13T01:10:48;17.33;;;2.77;;
1436;SDS011;712;51.026;13.792;2023-03-13T01:13:13;15.43;;;2.20;;
1436;SDS011;712;51.026;13.792;2023-03-13T01:15:38;13.18;;;2.30;;
1436;SDS011;712;51.026;13.792;2023-03-13T01:18:03;10.05;;;1.65;;
1436;SDS011;712;51.026;13.792;2023-03-13T01:20:29;15.47;;;2.03;;
1436;SDS011;712;51.026;13.792;2023-03-13T01:22:54;8.93;;;1.60;;
1436;SDS011;712;51.026;13.792;2023-03-13T01:25:19;14.75;;;2.60;;
1436;SDS011;712;51.026;13.792;2023-03-13T01:27:44;13.95;;;2.40;;
1436;SDS011;712;51.026;13.792;2023-03-13T01:30:10;12.05;;;2.00;;
1436;SDS011;712;51.026;13.792;2023-03-13T01:32:35;11.90;;;2.35;;
1436;SDS011;712;51.026;13.792;2023-03-13T01:35:00;12.73;;;2.07;;
1436;SDS011;712;51.026;13.792;2023-03-13T01:37:25;12.80;;;2.13;;
1436;SDS011;712;51.026;13.792;2023-03-13T01:39:51;12.20;;;1.90;;
1436;SDS011;712;51.026;13.792;2023-03-13T01:42:16;14.55;;;2.35;;
1436;SDS011;712;51.026;13.792;2023-03-13T01:44:54;12.60;;;1.88;;
1436;SDS011;712;51.026;13.792;2023-03-13T01:49:44;9.70;;;1.73;;
1436;SDS011;712;51.026;13.792;2023-03-13T01:52:15;11.00;;;2.20;;
1436;SDS011;712;51.026;13.792;2023-03-13T01:59:39;11.45;;;1.90;;
1436;SDS011;712;51.026;13.792;2023-03-13T02:02:05;18.58;;;2.33;;
1436;SDS011;712;51.026;13.792;2023-03-13T02:04:31;16.60;;;2.40;;
1436;SDS011;712;51.026;13.792;2023-03-13T02:09:23;9.98;;;2.03;;
1436;SDS011;712;51.026;13.792;2023-03-13T02:12:06;14.57;;;1.90;;
1436;SDS011;712;51.026;13.792;2023-03-13T02:14:33;15.13;;;2.30;;
1436;SDS011;712;51.026;13.792;2023-03-13T02:17:00;16.40;;;2.42;;
1436;SDS011;712;51.026;13.792;2023-03-13T02:22:12;11.25;;;1.88;;
1436;SDS011;712;51.026;13.792;2023-03-13T02:27:06;12.50;;;2.20;;
1436;SDS011;712;51.026;13.792;2023-03-13T02:29:32;11.10;;;1.70;;
1436;SDS011;712;51.026;13.792;2023-03-13T02:31:57;14.20;;;2.60;;
1436;SDS011;712;51.026;13.792;2023-03-13T02:34:23;11.97;;;1.70;;
1436;SDS011;712;51.026;13.792;2023-03-13T02:36:49;11.82;;;2.22;;
1436;SDS011;712;51.026;13.792;2023-03-13T02:39:16;14.82;;;2.03;;
1436;SDS011;712;51.026;13.792;2023-03-13T02:41:42;11.43;;;2.00;;
1436;SDS011;712;51.026;13.792;2023-03-13T02:44:08;13.10;;;2.22;;
1436;SDS011;712;51.026;13.792;2023-03-13T02:46:43;11.67;;;2.40;;
1436;SDS011;712;51.026;13.792;2023-03-13T02:49:18;13.02;;;1.98;;
1436;SDS011;712;51.026;13.792;2023-03-13T02:51:44;10.27;;;1.80;;
1436;SDS011;712;51.026;13.792;2023-03-13T02:54:11;16.70;;;2.35;;
1436;SDS011;712;51.026;13.792;2023-03-13T02:56:39;13.95;;;2.55;;
1436;SDS011;712;51.026;13.792;2023-03-13T02:59:05;13.75;;;1.90;;
1436;SDS011;712;51.026;13.792;2023-03-13T03:01:31;10.25;;;1.70;;
1436;SDS011;712;51.026;13.792;2023-03-13T03:03:57;13.60;;;2.00;;
1436;SDS011;712;51.026;13.792;2023-03-13T03:06:22;12.40;;;2.17;;
1436;SDS011;712;51.026;13.792;2023-03-13T03:08:47;12.60;;;2.15;;
1436;SDS011;712;51.026;13.792;2023-03-13T03:11:12;10.60;;;1.70;;
1436;SDS011;712;51.026;13.792;2023-03-13T03:13:37;8.80;;;1.75;;
1436;SDS011;712;51.026;13.792;2023-03-13T03:16:09;10.07;;;2.37;;
1436;SDS011;712;51.026;13.792;2023-03-13T03:18:35;15.32;;;2.35;;
1436;SDS011;712;51.026;13.792;2023-03-13T03:21:01;11.25;;;2.22;;
1436;SDS011;712;51.026;13.792;2023-03-13T03:23:26;14.13;;;1.90;;
1436;SDS011;712;51.026;13.792;2023-03-13T03:25:51;9.77;;;1.53;;
1436;SDS011;712;51.026;13.792;2023-03-13T03:28:16;10.55;;;1.70;;
1436;SDS011;712;51.026;13.792;2023-03-13T03:30:41;13.27;;;2.10;;
1436;SDS011;712;51.026;13.792;2023-03-13T03:33:06;8.65;;;1.48;;
1436;SDS011;712;51.026;13.792;2023-03-13T03:35:32;10.53;;;1.80;;
1436;SDS011;712;51.026;13.792;2023-03-13T03:37:58;13.10;;;2.00;;
1436;SDS011;712;51.026;13.792;2023-03-13T03:40:23;10.70;;;2.20;;
1436;SDS011;712;51.026;13.792;2023-03-13T03:42:49;10.53;;;1.67;;
1436;SDS011;712;51.026;13.792;2023-03-13T03:45:14;9.52;;;1.73;;
1436;SDS011;712;51.026;13.792;2023-03-13T03:47:39;13.43;;;1.80;;
1436;SDS011;712;51.026;13.792;2023-03-13T03:50:04;11.93;;;1.90;;
1436;SDS011;712;51.026;13.792;2023-03-13T03:52:31;10.20;;;1.65;;
1436;SDS011;712;51.026;13.792;2023-03-13T03:54:56;12.15;;;2.15;;
1436;SDS011;712;51.026;13.792;2023-03-13T03:57:21;10.50;;;1.50;;
1436;SDS011;712;51.026;13.792;2023-03-13T03:59:47;10.10;;;1.45;;
1436;SDS011;712;51.026;13.792;2023-03-13T04:02:12;10.83;;;1.80;;
1436;SDS011;712;51.026;13.792;2023-03-13T04:04:37;8.52;;;1.80;;
1436;SDS011;712;51.026;13.792;2023-03-13T04:07:03;13.32;;;1.73;;
1436;SDS011;712;51.026;13.792;2023-03-13T04:09:28;9.67;;;1.60;;
1436;SDS011;712;51.026;13.792;2023-03-13T04:11:53;11.07;;;1.97;;
1436;SDS011;712;51.026;13.792;2023-03-13T04:14:18;12.83;;;2.17;;
1436;SDS011;712;51.026;13.792;2023-03-13T04:16:43;14.07;;;2.00;;
1436;SDS011;712;51.026;13.792;2023-03-13T04:19:08;12.55;;;2.05;;
1436;SDS011;712;51.026;13.792;2023-03-13T04:21:34;13.70;;;1.95;;
1436;SDS011;712;51.026;13.792;2023-03-13T04:23:59;11.88;;;1.70;;
1436;SDS011;712;51.026;13.792;2023-03-13T04:26:24;10.05;;;1.88;;
1436;SDS011;712;51.026;13.792;2023-03-13T04:28:49;10.23;;;1.55;;
1436;SDS011;712;51.026;13.792;2023-03-13T04:31:15;12.13;;;1.90;;
1436;SDS011;712;51.026;13.792;2023-03-13T04:33:40;9.87;;;1.50;;
1436;SDS011;712;51.026;13.792;2023-03-13T04:36:05;13.60;;;2.10;;
1436;SDS011;712;51.026;13.792;2023-03-13T04:38:30;10.40;;;1.83;;
1436;SDS011;712;51.026;13.792;2023-03-13T04:40:55;10.40;;;1.85;;
1436;SDS011;712;51.026;13.792;2023-03-13T04:43:21;16.03;;;1.83;;
1436;SDS011;712;51.026;13.792;2023-03-13T04:45:46;15.75;;;2.10;;
1436;SDS011;712;51.026;13.792;2023-03-13T04:48:11;13.88;;;1.80;;
1436;SDS011;712;51.026;13.792;2023-03-13T04:50:36;13.83;;;2.40;;
1436;SDS011;712;51.026;13.792;2023-03-13T04:53:01;16.37;;;2.03;;
1436;SDS011;712;51.026;13.792;2023-03-13T04:55:26;12.60;;;2.10;;
1436;SDS011;712;51.026;13.792;2023-03-13T04:57:52;11.57;;;1.90;;
1436;SDS011;712;51.026;13.792;2023-03-13T05:00:17;13.82;;;1.92;;
1436;SDS011;712;51.026;13.792;2023-03-13T05:02:42;12.90;;;2.03;;
1436;SDS011;712;51.026;13.792;2023-03-13T05:05:07;11.98;;;2.00;;
1436;SDS011;712;51.026;13.792;2023-03-13T05:07:32;17.43;;;2.13;;
1436;SDS011;712;51.026;13.792;2023-03-13T05:09:58;7.73;;;1.60;;
1436;SDS011;712;51.026;13.792;2023-03-13T05:12:23;12.63;;;1.77;;
1436;SDS011;712;51.026;13.792;2023-03-13T05:14:48;10.73;;;1.70;;
1436;SDS011;712;51.026;13.792;2023-03-13T05:17:14;11.43;;;2.53;;
1436;SDS011;712;51.026;13.792;2023-03-13T05:19:39;15.80;;;2.28;;
1436;SDS011;712;51.026;13.792;2023-03-13T05:22:04;13.20;;;1.88;;
1436;SDS011;712;51.026;13.792;2023-03-13T05:24:29;14.27;;;2.17;;
1436;SDS011;712;51.026;13.792;2023-03-13T05:26:55;22.10;;;2.83;;
1436;SDS011;712;51.026;13.792;2023-03-13T05:29:20;10.50;;;2.00;;
1436;SDS011;712;51.026;13.792;2023-03-13T05:31:45;15.47;;;2.73;;
1436;SDS011;712;51.026;13.792;2023-03-13T05:34:10;14.93;;;2.20;;
1436;SDS011;712;51.026;13.792;2023-03-13T05:36:35;16.93;;;2.63;;
1436;SDS011;712;51.026;13.792;2023-03-13T05:39:00;11.65;;;2.25;;
1436;SDS011;712;51.026;13.792;2023-03-13T05:41:25;12.48;;;2.63;;
1436;SDS011;712;51.026;13.792;2023-03-13T05:43:51;12.90;;;2.88;;
1436;SDS011;712;51.026;13.792;2023-03-13T05:46:16;15.43;;;3.00;;
1436;SDS011;712;51.026;13.792;2023-03-13T05:48:41;14.52;;;2.90;;
1436;SDS011;712;51.026;13.792;2023-03-13T05:51:06;15.57;;;3.17;;
1436;SDS011;712;51.026;13.792;2023-03-13T05:53:32;10.75;;;3.22;;
1436;SDS011;712;51.026;13.792;2023-03-13T05:55:57;12.93;;;2.92;;
1436;SDS011;712;51.026;13.792;2023-03-13T05:58:22;13.30;;;3.27;;
1436;SDS011;712;51.026;13.792;2023-03-13T06:00:47;11.83;;;3.13;;
1436;SDS011;712;51.026;13.792;2023-03-13T06:03:12;16.57;;;4.10;;
1436;SDS011;712;51.026;13.792;2023-03-13T06:05:37;14.95;;;3.17;;
1436;SDS011;712;51.026;13.792;2023-03-13T06:08:03;16.23;;;3.80;;
1436;SDS011;712;51.026;13.792;2023-03-13T06:10:28;10.17;;;3.47;;
1436;SDS011;712;51.026;13.792;2023-03-13T06:12:53;12.97;;;3.43;;
1436;SDS011;712;51.026;13.792;2023-03-13T06:15:19;14.55;;;3.88;;
1436;SDS011;712;51.026;13.792;2023-03-13T06:17:44;15.47;;;4.63;;
1436;SDS011;712;51.026;13.792;2023-03-13T06:20:09;15.35;;;4.68;;
1436;SDS011;712;51.026;13.792;2023-03-13T06:22:35;16.27;;;4.90;;
1436;SDS011;712;51.026;13.792;2023-03-13T06:25:00;11.90;;;4.53;;
1436;SDS011;712;51.026;13.792;2023-03-13T06:27:25;15.30;;;4.50;;
1436;SDS011;712;51.026;13.792;2023-03-13T06:29:51;17.88;;;5.70;;
1436;SDS011;712;51.026;13.792;2023-03-13T06:32:16;14.73;;;5.70;;
1436;SDS011;712;51.026;13.792;2023-03-13T06:34:41;15.90;;;5.70;;
1436;SDS011;712;51.026;13.792;2023-03-13T06:37:06;15.25;;;5.28;;
1436;SDS011;712;51.026;13.792;2023-03-13T06:39:31;16.40;;;5.50;;
1436;SDS011;712;51.026;13.792;2023-03-13T06:41:56;13.80;;;5.07;;
1436;SDS011;712;51.026;13.792;2023-03-13T06:44:21;16.65;;;5.63;;
1436;SDS011;712;51.026;13.792;2023-03-13T06:46:47;16.27;;;5.35;;
1436;SDS011;712;51.026;13.792;2023-03-13T06:49:12;9.70;;;4.80;;
1436;SDS011;712;51.026;13.792;2023-03-13T06:51:37;11.65;;;4.80;;
1436;SDS011;712;51.026;13.792;2023-03-13T06:54:02;14.87;;;4.73;;
1436;SDS011;712;51.026;13.792;2023-03-13T06:56:27;10.93;;;4.10;;
1436;SDS011;712;51.026;13.792;2023-03-13T06:58:53;10.47;;;4.23;;
1436;SDS011;712;51.026;13.792;2023-03-13T07:01:18;11.87;;;4.67;;
1436;SDS011;712;51.026;13.792;2023-03-13T07:03:43;14.77;;;4.87;;
1436;SDS011;712;51.026;13.792;2023-03-13T07:06:08;12.02;;;4.65;;
1436;SDS011;712;51.026;13.792;2023-03-13T07:08:34;14.40;;;5.00;;
1436;SDS011;712;51.026;13.792;2023-03-13T07:11:00;13.27;;;5.10;;
1436;SDS011;712;51.026;13.792;2023-03-13T07:13:26;12.82;;;4.75;;
1436;SDS011;712;51.026;13.792;2023-03-13T07:15:51;12.77;;;5.22;;
1436;SDS011;712;51.026;13.792;2023-03-13T07:18:17;10.40;;;4.40;;
1436;SDS011;712;51.026;13.792;2023-03-13T07:20:42;12.27;;;4.40;;
1436;SDS011;712;51.026;13.792;2023-03-13T07:23:08;11.43;;;4.30;;
1436;SDS011;712;51.026;13.792;2023-03-13T07:25:33;11.30;;;4.15;;
1436;SDS011;712;51.026;13.792;2023-03-13T07:27:58;11.73;;;4.33;;
1436;SDS011;712;51.026;13.792;2023-03-13T07:30:25;8.38;;;3.50;;
1436;SDS011;712;51.026;13.792;2023-03-13T07:32:50;8.00;;;2.27;;
1436;SDS011;712;51.026;13.792;2023-03-13T07:35:15;7.45;;;1.92;;
1436;SDS011;712;51.026;13.792;2023-03-13T07:37:40;8.23;;;1.70;;
1436;SDS011;712;51.026;13.792;2023-03-13T07:40:05;7.13;;;1.90;;
1436;SDS011;712;51.026;13.792;2023-03-13T07:42:33;9.38;;;1.73;;
1436;SDS011;712;51.026;13.792;2023-03-13T07:44:58;7.82;;;1.85;;
1436;SDS011;712;51.026;13.792;2023-03-13T07:47:23;8.93;;;1.67;;
1436;SDS011;712;51.026;13.792;2023-03-13T07:49:48;9.80;;;1.88;;
1436;SDS011;712;51.026;13.792;2023-03-13T07:52:13;7.15;;;1.88;;
1436;SDS011;712;51.026;13.792;2023-03-13T07:54:38;7.50;;;2.30;;
1436;SDS011;712;51.026;13.792;2023-03-13T07:57:04;10.25;;;2.28;;
1436;SDS011;712;51.026;13.792;2023-03-13T07:59:29;7.05;;;2.60;;
1436;SDS011;712;51.026;13.792;2023-03-13T08:01:54;11.20;;;2.53;;
1436;SDS011;712;51.026;13.792;2023-03-13T08:04:20;12.77;;;3.10;;
1436;SDS011;712;51.026;13.792;2023-03-13T08:06:45;9.25;;;2.13;;
1436;SDS011;712;51.026;13.792;2023-03-13T08:09:10;9.70;;;3.60;;
1436;SDS011;712;51.026;13.792;2023-03-13T08:11:36;12.67;;;3.70;;
1436;SDS011;712;51.026;13.792;2023-03-13T08:16:28;9.87;;;3.63;;
1436;SDS011;712;51.026;13.792;2023-03-13T08:18:54;11.50;;;4.40;;
1436;SDS011;712;51.026;13.792;2023-03-13T08:23:45;12.38;;;4.55;;
1436;SDS011;712;51.026;13.792;2023-03-13T08:26:11;10.27;;;4.20;;
1436;SDS011;712;51.026;13.792;2023-03-13T08:28:37;13.25;;;4.90;;
1436;SDS011;712;51.026;13.792;2023-03-13T08:31:07;11.52;;;4.35;;
1436;SDS011;712;51.026;13.792;2023-03-13T08:33:32;9.60;;;4.32;;
1436;SDS011;712;51.026;13.792;2023-03-13T08:35:57;11.23;;;4.10;;
1436;SDS011;712;51.026;13.792;2023-03-13T08:38:22;8.77;;;4.10;;
1436;SDS011;712;51.026;13.792;2023-03-13T08:40:48;8.13;;;3.85;;
1436;SDS011;712;51.026;13.792;2023-03-13T08:43:13;9.27;;;3.83;;
1436;SDS011;712;51.026;13.792;2023-03-13T08:45:38;9.70;;;3.55;;
1436;SDS011;712;51.026;13.792;2023-03-13T08:48:03;12.57;;;4.67;;
1436;SDS011;712;51.026;13.792;2023-03-13T08:50:28;8.97;;;3.50;;
1436;SDS011;712;51.026;13.792;2023-03-13T08:52:53;9.47;;;3.40;;
1436;SDS011;712;51.026;13.792;2023-03-13T08:55:19;9.10;;;3.40;;
1436;SDS011;712;51.026;13.792;2023-03-13T08:57:44;8.13;;;3.33;;
1436;SDS011;712;51.026;13.792;2023-03-13T09:00:09;9.73;;;3.58;;
1436;SDS011;712;51.026;13.792;2023-03-13T09:02:35;7.63;;;2.70;;
1436;SDS011;712;51.026;13.792;2023-03-13T09:05:00;5.43;;;1.52;;
1436;SDS011;712;51.026;13.792;2023-03-13T09:07:25;7.38;;;1.50;;
1436;SDS011;712;51.026;13.792;2023-03-13T09:09:50;4.60;;;1.30;;
1436;SDS011;712;51.026;13.792;2023-03-13T09:12:15;6.03;;;1.40;;
1436;SDS011;712;51.026;13.792;2023-03-13T09:14:40;7.45;;;1.38;;
1436;SDS011;712;51.026;13.792;2023-03-13T09:17:06;3.72;;;1.33;;
1436;SDS011;712;51.026;13.792;2023-03-13T09:19:31;5.57;;;1.38;;
1436;SDS011;712;51.026;13.792;2023-03-13T09:21:56;4.57;;;1.10;;
1436;SDS011;712;51.026;13.792;2023-03-13T09:24:21;4.23;;;1.10;;
1436;SDS011;712;51.026;13.792;2023-03-13T09:26:47;6.85;;;1.20;;
1436;SDS011;712;51.026;13.792;2023-03-13T09:29:12;4.68;;;1.00;;
1436;SDS011;712;51.026;13.792;2023-03-13T09:31:37;5.30;;;1.05;;
1436;SDS011;712;51.026;13.792;2023-03-13T09:34:02;4.95;;;1.10;;
1436;SDS011;712;51.026;13.792;2023-03-13T09:36:28;3.40;;;1.00;;
1436;SDS011;712;51.026;13.792;2023-03-13T09:38:53;3.57;;;0.90;;
1436;SDS011;712;51.026;13.792;2023-03-13T09:41:26;4.03;;;1.05;;
1436;SDS011;712;51.026;13.792;2023-03-13T09:44:11;5.53;;;1.38;;
1436;SDS011;712;51.026;13.792;2023-03-13T09:46:43;3.80;;;1.10;;
1436;SDS011;712;51.026;13.792;2023-03-13T09:49:14;5.05;;;1.20;;
1436;SDS011;712;51.026;13.792;2023-03-13T09:51:42;5.50;;;1.00;;
1436;SDS011;712;51.026;13.792;2023-03-13T09:54:22;5.20;;;1.30;;
1436;SDS011;712;51.026;13.792;2023-03-13T09:56:52;4.38;;;1.10;;
1436;SDS011;712;51.026;13.792;2023-03-13T09:59:20;5.30;;;1.10;;
1436;SDS011;712;51.026;13.792;2023-03-13T10:01:46;3.63;;;1.00;;
1436;SDS011;712;51.026;13.792;2023-03-13T10:06:44;4.32;;;1.20;;
1436;SDS011;712;51.026;13.792;2023-03-13T10:09:23;5.07;;;1.10;;
1436;SDS011;712;51.026;13.792;2023-03-13T10:11:52;4.53;;;1.20;;
1436;SDS011;712;51.026;13.792;2023-03-13T10:14:26;4.70;;;1.17;;
1436;SDS011;712;51.026;13.792;2023-03-13T10:16:58;4.43;;;1.10;;
1436;SDS011;712;51.026;13.792;2023-03-13T10:19:27;4.43;;;1.08;;
1436;SDS011;712;51.026;13.792;2023-03-13T10:21:54;3.85;;;1.10;;
1436;SDS011;712;51.026;13.792;2023-03-13T10:26:51;4.97;;;1.00;;
1436;SDS011;712;51.026;13.792;2023-03-13T10:31:45;3.35;;;0.80;;
1436;SDS011;712;51.026;13.792;2023-03-13T10:34:12;2.85;;;0.70;;
1436;SDS011;712;51.026;13.792;2023-03-13T10:36:41;2.40;;;0.60;;
1436;SDS011;712;51.026;13.792;2023-03-13T10:39:07;1.98;;;0.68;;
1436;SDS011;712;51.026;13.792;2023-03-13T10:41:34;7.00;;;2.42;;
1436;SDS011;712;51.026;13.792;2023-03-13T10:44:02;8.07;;;2.80;;
1436;SDS011;712;51.026;13.792;2023-03-13T10:46:32;7.72;;;3.30;;
1436;SDS011;712;51.026;13.792;2023-03-13T10:49:02;6.22;;;2.83;;
1436;SDS011;712;51.026;13.792;2023-03-13T10:51:34;6.35;;;2.30;;
1436;SDS011;712;51.026;13.792;2023-03-13T10:53:59;5.70;;;1.92;;
1436;SDS011;712;51.026;13.792;2023-03-13T10:56:27;4.38;;;1.20;;
1436;SDS011;712;51.026;13.792;2023-03-13T10:58:53;2.88;;;0.80;;
1436;SDS011;712;51.026;13.792;2023-03-13T11:01:22;4.37;;;0.80;;
1436;SDS011;712;51.026;13.792;2023-03-13T11:03:49;2.25;;;0.73;;
1436;SDS011;712;51.026;13.792;2023-03-13T11:06:31;3.72;;;0.80;;
1436;SDS011;712;51.026;13.792;2023-03-13T11:08:57;3.47;;;0.80;;
1436;SDS011;712;51.026;13.792;2023-03-13T11:11:22;2.17;;;0.60;;
1436;SDS011;712;51.026;13.792;2023-03-13T11:13:51;1.38;;;0.50;;
1436;SDS011;712;51.026;13.792;2023-03-13T11:16:18;1.77;;;0.63;;
1436;SDS011;712;51.026;13.792;2023-03-13T11:21:10;2.90;;;0.70;;
1436;SDS011;712;51.026;13.792;2023-03-13T11:23:42;3.17;;;0.70;;
1436;SDS011;712;51.026;13.792;2023-03-13T11:26:18;2.40;;;0.70;;
1436;SDS011;712;51.026;13.792;2023-03-13T11:31:27;3.72;;;0.88;;
1436;SDS011;712;51.026;13.792;2023-03-13T11:36:38;2.60;;;0.70;;
1436;SDS011;712;51.026;13.792;2023-03-13T11:39:10;2.83;;;0.77;;
1436;SDS011;712;51.026;13.792;2023-03-13T11:41:48;2.80;;;0.80;;
1436;SDS011;712;51.026;13.792;2023-03-13T11:57:12;2.78;;;0.70;;
1436;SDS011;712;51.026;13.792;2023-03-13T12:05:05;2.22;;;0.65;;
1436;SDS011;712;51.026;13.792;2023-03-13T12:07:34;2.15;;;0.70;;
1436;SDS011;712;51.026;13.792;2023-03-13T12:10:01;2.83;;;0.70;;
1436;SDS011;712;51.026;13.792;2023-03-13T12:15:27;3.17;;;0.73;;
1436;SDS011;712;51.026;13.792;2023-03-13T12:17:59;2.33;;;0.70;;
1436;SDS011;712;51.026;13.792;2023-03-13T12:20:26;2.90;;;0.70;;
1436;SDS011;712;51.026;13.792;2023-03-13T12:25:37;2.80;;;0.70;;
1436;SDS011;712;51.026;13.792;2023-03-13T12:28:14;2.58;;;0.80;;
1436;SDS011;712;51.026;13.792;2023-03-13T12:30:47;3.10;;;0.80;;
1436;SDS011;712;51.026;13.792;2023-03-13T12:33:22;2.15;;;0.77;;
1436;SDS011;712;51.026;13.792;2023-03-13T12:36:02;2.97;;;0.90;;
1436;SDS011;712;51.026;13.792;2023-03-13T12:38:36;3.00;;;0.77;;
1436;SDS011;712;51.026;13.792;2023-03-13T12:43:35;3.47;;;0.80;;
1436;SDS011;712;51.026;13.792;2023-03-13T12:48:40;2.33;;;0.70;;
1436;SDS011;712;51.026;13.792;2023-03-13T12:51:11;3.08;;;0.80;;
1436;SDS011;712;51.026;13.792;2023-03-13T12:58:43;3.20;;;0.70;;
1436;SDS011;712;51.026;13.792;2023-03-13T13:01:12;2.17;;;0.70;;
1436;SDS011;712;51.026;13.792;2023-03-13T13:03:55;2.92;;;0.80;;
1436;SDS011;712;51.026;13.792;2023-03-13T13:06:22;2.03;;;0.60;;
1436;SDS011;712;51.026;13.792;2023-03-13T13:13:59;2.30;;;0.80;;
1436;SDS011;712;51.026;13.792;2023-03-13T13:16:24;3.58;;;0.68;;
1436;SDS011;712;51.026;13.792;2023-03-13T13:18:50;2.60;;;0.80;;
1436;SDS011;712;51.026;13.792;2023-03-13T13:23:42;1.90;;;0.70;;
1436;SDS011;712;51.026;13.792;2023-03-13T13:34:52;2.88;;;0.80;;
1436;SDS011;712;51.026;13.792;2023-03-13T13:39:40;3.47;;;0.90;;
1436;SDS011;712;51.026;13.792;2023-03-13T13:43:17;4.18;;;0.70;;
1436;SDS011;712;51.026;13.792;2023-03-13T13:47:44;4.78;;;0.82;;
1436;SDS011;712;51.026;13.792;2023-03-13T13:50:20;4.68;;;0.80;;
1436;SDS011;712;51.026;13.792;2023-03-13T13:52:46;3.70;;;0.60;;
1436;SDS011;712;51.026;13.792;2023-03-13T13:55:45;2.55;;;0.70;;
1436;SDS011;712;51.026;13.792;2023-03-13T13:58:04;2.67;;;0.90;;
1436;SDS011;712;51.026;13.792;2023-03-13T14:00:34;3.83;;;0.88;;
1436;SDS011;712;51.026;13.792;2023-03-13T14:03:00;2.65;;;0.77;;
1436;SDS011;712;51.026;13.792;2023-03-13T14:05:26;2.50;;;0.60;;
1436;SDS011;712;51.026;13.792;2023-03-13T14:10:43;3.63;;;0.80;;
1436;SDS011;712;51.026;13.792;2023-03-13T14:13:20;2.30;;;0.70;;
1436;SDS011;712;51.026;13.792;2023-03-13T14:15:50;4.18;;;0.77;;
1436;SDS011;712;51.026;13.792;2023-03-13T14:18:28;2.50;;;0.80;;
1436;SDS011;712;51.026;13.792;2023-03-13T14:21:00;3.22;;;0.80;;
1436;SDS011;712;51.026;13.792;2023-03-13T14:23:42;2.60;;;0.77;;
1436;SDS011;712;51.026;13.792;2023-03-13T14:26:28;2.28;;;0.60;;
1436;SDS011;712;51.026;13.792;2023-03-13T14:31:22;3.17;;;0.80;;
1436;SDS011;712;51.026;13.792;2023-03-13T14:33:47;2.42;;;0.70;;
1436;SDS011;712;51.026;13.792;2023-03-13T14:36:13;3.28;;;1.00;;
1436;SDS011;712;51.026;13.792;2023-03-13T14:38:38;3.38;;;0.77;;
1436;SDS011;712;51.026;13.792;2023-03-13T14:41:04;2.88;;;1.00;;
1436;SDS011;712;51.026;13.792;2023-03-13T14:43:32;4.87;;;0.90;;
1436;SDS011;712;51.026;13.792;2023-03-13T14:45:59;5.40;;;1.00;;
1436;SDS011;712;51.026;13.792;2023-03-13T14:48:31;2.38;;;0.80;;
1436;SDS011;712;51.026;13.792;2023-03-13T14:51:07;3.30;;;0.90;;
1436;SDS011;712;51.026;13.792;2023-03-13T14:53:33;2.03;;;0.73;;
1436;SDS011;712;51.026;13.792;2023-03-13T14:56:14;2.72;;;0.80;;
1436;SDS011;712;51.026;13.792;2023-03-13T14:58:43;3.15;;;0.80;;
1436;SDS011;712;51.026;13.792;2023-03-13T15:01:26;4.97;;;0.90;;
1436;SDS011;712;51.026;13.792;2023-03-13T15:03:54;4.13;;;1.10;;
1436;SDS011;712;51.026;13.792;2023-03-13T15:06:23;4.73;;;0.80;;
1436;SDS011;712;51.026;13.792;2023-03-13T15:09:39;5.95;;;1.00;;
1436;SDS011;712;51.026;13.792;2023-03-13T15:11:34;2.88;;;0.95;;
1436;SDS011;712;51.026;13.792;2023-03-13T15:14:01;3.35;;;0.90;;
1436;SDS011;712;51.026;13.792;2023-03-13T15:16:26;4.27;;;0.90;;
1436;SDS011;712;51.026;13.792;2023-03-13T15:18:52;5.90;;;1.15;;
1436;SDS011;712;51.026;13.792;2023-03-13T15:21:22;3.63;;;1.00;;
1436;SDS011;712;51.026;13.792;2023-03-13T15:24:33;3.17;;;1.00;;
1436;SDS011;712;51.026;13.792;2023-03-13T15:26:33;4.60;;;1.10;;
1436;SDS011;712;51.026;13.792;2023-03-13T15:28:58;5.78;;;1.10;;
1436;SDS011;712;51.026;13.792;2023-03-13T15:31:25;4.78;;;1.15;;
1436;SDS011;712;51.026;13.792;2023-03-13T15:33:53;3.72;;;0.88;;
1436;SDS011;712;51.026;13.792;2023-03-13T15:36:18;4.68;;;0.98;;
1436;SDS011;712;51.026;13.792;2023-03-13T15:38:43;3.05;;;0.80;;
1436;SDS011;712;51.026;13.792;2023-03-13T15:41:09;2.83;;;0.95;;
1436;SDS011;712;51.026;13.792;2023-03-13T15:43:34;2.97;;;0.80;;
1436;SDS011;712;51.026;13.792;2023-03-13T15:46:00;4.28;;;1.00;;
1436;SDS011;712;51.026;13.792;2023-03-13T15:48:26;5.22;;;1.60;;
1436;SDS011;712;51.026;13.792;2023-03-13T15:50:53;3.90;;;1.00;;
1436;SDS011;712;51.026;13.792;2023-03-13T15:53:20;2.58;;;0.90;;
1436;SDS011;712;51.026;13.792;2023-03-13T15:55:46;2.35;;;0.80;;
1436;SDS011;712;51.026;13.792;2023-03-13T15:58:11;3.92;;;1.00;;
1436;SDS011;712;51.026;13.792;2023-03-13T16:00:37;2.65;;;0.80;;
1436;SDS011;712;51.026;13.792;2023-03-13T16:03:02;4.47;;;0.90;;
1436;SDS011;712;51.026;13.792;2023-03-13T16:05:28;4.37;;;0.70;;
1436;SDS011;712;51.026;13.792;2023-03-13T16:07:53;3.65;;;1.10;;
1436;SDS011;712;51.026;13.792;2023-03-13T16:10:20;4.28;;;0.95;;
1436;SDS011;712;51.026;13.792;2023-03-13T16:12:46;3.63;;;0.90;;
1436;SDS011;712;51.026;13.792;2023-03-13T16:15:11;3.63;;;0.88;;
1436;SDS011;712;51.026;13.792;2023-03-13T16:17:36;3.67;;;0.80;;
1436;SDS011;712;51.026;13.792;2023-03-13T16:20:02;2.90;;;0.90;;
1436;SDS011;712;51.026;13.792;2023-03-13T16:22:29;2.67;;;0.90;;
1436;SDS011;712;51.026;13.792;2023-03-13T16:24:54;1.80;;;0.70;;
1436;SDS011;712;51.026;13.792;2023-03-13T16:27:19;2.17;;;0.60;;
1436;SDS011;712;51.026;13.792;2023-03-13T16:29:45;2.22;;;0.82;;
1436;SDS011;712;51.026;13.792;2023-03-13T16:32:11;3.08;;;0.80;;
1436;SDS011;712;51.026;13.792;2023-03-13T16:34:37;2.63;;;1.02;;
1436;SDS011;712;51.026;13.792;2023-03-13T16:37:08;3.20;;;0.97;;
1436;SDS011;712;51.026;13.792;2023-03-13T16:39:33;3.30;;;0.95;;
1436;SDS011;712;51.026;13.792;2023-03-13T16:41:59;3.47;;;1.02;;
1436;SDS011;712;51.026;13.792;2023-03-13T16:44:24;3.20;;;1.00;;
1436;SDS011;712;51.026;13.792;2023-03-13T16:46:49;3.30;;;0.90;;